Terminal Aerodrome Forecast
Issued by NWS

Home | Current Version | Previous Version | Text Only | Print | Product List | Glossary On
Versions: 1 2 3 4 5 6 7 8 9 10 11 12 13 14 15 16 17 18
000
FTAK31 PAJN 281100
TAFAGY
TAF
PAGY 281125Z 2812/2912 VRB03KT 2SM -SHRA BR SCT005 OVC015
      TEMPO 2812/2816 1/2SM -SHRA FG BKN003 OVC010
     FM281600 VRB02KT 4SM -RA BR SCT010 BKN025 OVC040
     FM282100 21006KT P6SM -RA BKN040 OVC080
     FM290600 21008KT 5SM -RA BR SCT025 OVC050
      AMD LTD TO CLD VIS AND WIND=

USA.gov is the U.S. government's official web portal to all federal, state and local government web resources and services.